sensor_id;sensor_type;location;lat;lon;timestamp;P1;durP1;ratioP1;P2;durP2;ratioP2
54849;SDS011;47660;51.334;12.396;2024-03-02T00:02:07;31.23;;;13.70;;
54849;SDS011;47660;51.334;12.396;2024-03-02T00:04:32;34.08;;;14.18;;
54849;SDS011;47660;51.334;12.396;2024-03-02T00:06:58;34.30;;;13.90;;
54849;SDS011;47660;51.334;12.396;2024-03-02T00:09:24;29.48;;;14.23;;
54849;SDS011;47660;51.334;12.396;2024-03-02T00:11:49;30.02;;;13.52;;
54849;SDS011;47660;51.334;12.396;2024-03-02T00:14:15;38.50;;;13.90;;
54849;SDS011;47660;51.334;12.396;2024-03-02T00:16:41;32.03;;;13.07;;
54849;SDS011;47660;51.334;12.396;2024-03-02T00:19:07;37.17;;;14.40;;
54849;SDS011;47660;51.334;12.396;2024-03-02T00:21:34;39.88;;;15.50;;
54849;SDS011;47660;51.334;12.396;2024-03-02T00:24:00;33.05;;;13.30;;
54849;SDS011;47660;51.334;12.396;2024-03-02T00:26:31;30.70;;;13.80;;
54849;SDS011;47660;51.334;12.396;2024-03-02T00:28:57;33.80;;;13.32;;
54849;SDS011;47660;51.334;12.396;2024-03-02T00:31:22;27.67;;;13.10;;
54849;SDS011;47660;51.334;12.396;2024-03-02T00:33:48;28.77;;;12.52;;
54849;SDS011;47660;51.334;12.396;2024-03-02T00:36:14;34.17;;;13.25;;
54849;SDS011;47660;51.334;12.396;2024-03-02T00:38:51;25.85;;;12.45;;
54849;SDS011;47660;51.334;12.396;2024-03-02T00:41:22;31.70;;;13.88;;
54849;SDS011;47660;51.334;12.396;2024-03-02T00:46:16;31.98;;;12.50;;
54849;SDS011;47660;51.334;12.396;2024-03-02T00:48:48;34.08;;;12.55;;
54849;SDS011;47660;51.334;12.396;2024-03-02T00:51:19;31.15;;;13.20;;
54849;SDS011;47660;51.334;12.396;2024-03-02T00:53:46;34.28;;;12.95;;
54849;SDS011;47660;51.334;12.396;2024-03-02T00:56:11;30.45;;;12.90;;
54849;SDS011;47660;51.334;12.396;2024-03-02T00:58:37;28.70;;;12.52;;
54849;SDS011;47660;51.334;12.396;2024-03-02T01:01:02;27.55;;;12.20;;
54849;SDS011;47660;51.334;12.396;2024-03-02T01:03:28;32.17;;;12.32;;
54849;SDS011;47660;51.334;12.396;2024-03-02T01:05:53;28.75;;;12.35;;
54849;SDS011;47660;51.334;12.396;2024-03-02T01:08:19;29.05;;;12.38;;
54849;SDS011;47660;51.334;12.396;2024-03-02T01:10:44;28.05;;;12.10;;
54849;SDS011;47660;51.334;12.396;2024-03-02T01:13:09;29.52;;;11.15;;
54849;SDS011;47660;51.334;12.396;2024-03-02T01:15:35;29.00;;;11.90;;
54849;SDS011;47660;51.334;12.396;2024-03-02T01:18:00;28.83;;;12.77;;
54849;SDS011;47660;51.334;12.396;2024-03-02T01:20:25;29.13;;;12.20;;
54849;SDS011;47660;51.334;12.396;2024-03-02T01:22:50;29.88;;;12.77;;
54849;SDS011;47660;51.334;12.396;2024-03-02T01:25:16;29.70;;;11.82;;
54849;SDS011;47660;51.334;12.396;2024-03-02T01:27:41;22.95;;;11.27;;
54849;SDS011;47660;51.334;12.396;2024-03-02T01:30:06;30.95;;;11.45;;
54849;SDS011;47660;51.334;12.396;2024-03-02T01:32:32;28.35;;;11.38;;
54849;SDS011;47660;51.334;12.396;2024-03-02T01:34:57;29.73;;;11.52;;
54849;SDS011;47660;51.334;12.396;2024-03-02T01:37:23;26.25;;;11.55;;
54849;SDS011;47660;51.334;12.396;2024-03-02T01:39:48;24.83;;;11.90;;
54849;SDS011;47660;51.334;12.396;2024-03-02T01:42:13;29.33;;;11.57;;
54849;SDS011;47660;51.334;12.396;2024-03-02T01:44:39;19.33;;;9.70;;
54849;SDS011;47660;51.334;12.396;2024-03-02T01:47:05;26.80;;;11.85;;
54849;SDS011;47660;51.334;12.396;2024-03-02T01:49:30;23.35;;;10.88;;
54849;SDS011;47660;51.334;12.396;2024-03-02T01:51:56;23.58;;;10.00;;
54849;SDS011;47660;51.334;12.396;2024-03-02T01:54:21;24.30;;;11.15;;
54849;SDS011;47660;51.334;12.396;2024-03-02T01:56:46;24.25;;;11.23;;
54849;SDS011;47660;51.334;12.396;2024-03-02T01:59:12;26.08;;;10.90;;
54849;SDS011;47660;51.334;12.396;2024-03-02T02:01:38;24.67;;;10.07;;
54849;SDS011;47660;51.334;12.396;2024-03-02T02:04:04;21.73;;;9.88;;
54849;SDS011;47660;51.334;12.396;2024-03-02T02:06:31;24.90;;;10.63;;
54849;SDS011;47660;51.334;12.396;2024-03-02T02:08:56;26.05;;;11.10;;
54849;SDS011;47660;51.334;12.396;2024-03-02T02:11:22;25.63;;;10.60;;
54849;SDS011;47660;51.334;12.396;2024-03-02T02:13:47;26.23;;;10.77;;
54849;SDS011;47660;51.334;12.396;2024-03-02T02:16:13;20.42;;;10.05;;
54849;SDS011;47660;51.334;12.396;2024-03-02T02:18:38;21.10;;;8.98;;
54849;SDS011;47660;51.334;12.396;2024-03-02T02:21:03;21.10;;;9.80;;
54849;SDS011;47660;51.334;12.396;2024-03-02T02:23:29;20.60;;;9.23;;
54849;SDS011;47660;51.334;12.396;2024-03-02T02:25:54;19.23;;;9.02;;
54849;SDS011;47660;51.334;12.396;2024-03-02T02:28:19;19.88;;;9.13;;
54849;SDS011;47660;51.334;12.396;2024-03-02T02:30:45;18.35;;;8.90;;
54849;SDS011;47660;51.334;12.396;2024-03-02T02:33:10;24.38;;;9.32;;
54849;SDS011;47660;51.334;12.396;2024-03-02T02:35:35;22.60;;;9.60;;
54849;SDS011;47660;51.334;12.396;2024-03-02T02:38:01;20.90;;;8.63;;
54849;SDS011;47660;51.334;12.396;2024-03-02T02:40:28;19.20;;;9.27;;
54849;SDS011;47660;51.334;12.396;2024-03-02T02:42:55;20.85;;;8.68;;
54849;SDS011;47660;51.334;12.396;2024-03-02T02:45:21;22.10;;;10.32;;
54849;SDS011;47660;51.334;12.396;2024-03-02T02:47:46;22.25;;;9.07;;
54849;SDS011;47660;51.334;12.396;2024-03-02T02:50:12;24.50;;;9.73;;
54849;SDS011;47660;51.334;12.396;2024-03-02T02:52:38;24.85;;;9.23;;
54849;SDS011;47660;51.334;12.396;2024-03-02T02:55:05;23.75;;;9.77;;
54849;SDS011;47660;51.334;12.396;2024-03-02T02:57:33;22.05;;;8.40;;
54849;SDS011;47660;51.334;12.396;2024-03-02T03:00:02;24.50;;;10.18;;
54849;SDS011;47660;51.334;12.396;2024-03-02T03:02:30;22.67;;;9.68;;
54849;SDS011;47660;51.334;12.396;2024-03-02T03:04:56;20.58;;;8.70;;
54849;SDS011;47660;51.334;12.396;2024-03-02T03:07:22;25.35;;;9.52;;
54849;SDS011;47660;51.334;12.396;2024-03-02T03:09:47;20.13;;;9.32;;
54849;SDS011;47660;51.334;12.396;2024-03-02T03:12:13;18.83;;;9.02;;
54849;SDS011;47660;51.334;12.396;2024-03-02T03:14:39;20.33;;;8.38;;
54849;SDS011;47660;51.334;12.396;2024-03-02T03:17:05;20.60;;;9.38;;
54849;SDS011;47660;51.334;12.396;2024-03-02T03:19:31;18.98;;;8.45;;
54849;SDS011;47660;51.334;12.396;2024-03-02T03:21:57;19.17;;;9.45;;
54849;SDS011;47660;51.334;12.396;2024-03-02T03:24:22;20.08;;;8.68;;
54849;SDS011;47660;51.334;12.396;2024-03-02T03:26:47;20.25;;;9.23;;
54849;SDS011;47660;51.334;12.396;2024-03-02T03:29:12;21.73;;;9.63;;
54849;SDS011;47660;51.334;12.396;2024-03-02T03:31:38;21.15;;;9.10;;
54849;SDS011;47660;51.334;12.396;2024-03-02T03:34:03;17.25;;;8.57;;
54849;SDS011;47660;51.334;12.396;2024-03-02T03:36:28;17.48;;;8.43;;
54849;SDS011;47660;51.334;12.396;2024-03-02T03:38:53;17.77;;;8.73;;
54849;SDS011;47660;51.334;12.396;2024-03-02T03:41:19;18.58;;;8.00;;
54849;SDS011;47660;51.334;12.396;2024-03-02T03:43:44;19.23;;;8.35;;
54849;SDS011;47660;51.334;12.396;2024-03-02T03:46:09;23.33;;;9.02;;
54849;SDS011;47660;51.334;12.396;2024-03-02T03:48:35;19.70;;;8.82;;
54849;SDS011;47660;51.334;12.396;2024-03-02T03:51:00;20.02;;;8.65;;
54849;SDS011;47660;51.334;12.396;2024-03-02T03:53:25;18.83;;;8.70;;
54849;SDS011;47660;51.334;12.396;2024-03-02T03:55:50;24.77;;;8.77;;
54849;SDS011;47660;51.334;12.396;2024-03-02T03:58:16;16.58;;;7.82;;
54849;SDS011;47660;51.334;12.396;2024-03-02T04:00:42;17.17;;;8.30;;
54849;SDS011;47660;51.334;12.396;2024-03-02T04:03:07;19.52;;;7.72;;
54849;SDS011;47660;51.334;12.396;2024-03-02T04:05:33;19.10;;;8.30;;
54849;SDS011;47660;51.334;12.396;2024-03-02T04:07:58;17.70;;;8.40;;
54849;SDS011;47660;51.334;12.396;2024-03-02T04:10:23;19.17;;;8.00;;
54849;SDS011;47660;51.334;12.396;2024-03-02T04:12:49;22.20;;;8.85;;
54849;SDS011;47660;51.334;12.396;2024-03-02T04:15:15;19.02;;;8.65;;
54849;SDS011;47660;51.334;12.396;2024-03-02T04:17:40;19.05;;;8.02;;
54849;SDS011;47660;51.334;12.396;2024-03-02T04:20:06;21.63;;;8.73;;
54849;SDS011;47660;51.334;12.396;2024-03-02T04:22:32;17.75;;;8.75;;
54849;SDS011;47660;51.334;12.396;2024-03-02T04:24:59;18.38;;;8.57;;
54849;SDS011;47660;51.334;12.396;2024-03-02T04:27:24;23.30;;;9.60;;
54849;SDS011;47660;51.334;12.396;2024-03-02T04:29:49;17.52;;;7.70;;
54849;SDS011;47660;51.334;12.396;2024-03-02T04:32:15;25.23;;;9.38;;
54849;SDS011;47660;51.334;12.396;2024-03-02T04:34:40;19.48;;;9.00;;
54849;SDS011;47660;51.334;12.396;2024-03-02T04:37:05;20.42;;;8.90;;
54849;SDS011;47660;51.334;12.396;2024-03-02T04:39:31;22.30;;;8.05;;
54849;SDS011;47660;51.334;12.396;2024-03-02T04:41:56;21.35;;;8.98;;
54849;SDS011;47660;51.334;12.396;2024-03-02T04:44:21;19.55;;;8.82;;
54849;SDS011;47660;51.334;12.396;2024-03-02T04:46:46;22.02;;;8.70;;
54849;SDS011;47660;51.334;12.396;2024-03-02T04:49:12;18.60;;;8.70;;
54849;SDS011;47660;51.334;12.396;2024-03-02T04:51:37;19.48;;;8.88;;
54849;SDS011;47660;51.334;12.396;2024-03-02T04:54:02;20.15;;;8.07;;
54849;SDS011;47660;51.334;12.396;2024-03-02T04:56:28;21.90;;;8.95;;
54849;SDS011;47660;51.334;12.396;2024-03-02T04:59:09;20.25;;;9.07;;
54849;SDS011;47660;51.334;12.396;2024-03-02T05:01:34;18.95;;;8.93;;
54849;SDS011;47660;51.334;12.396;2024-03-02T05:03:59;18.15;;;8.48;;
54849;SDS011;47660;51.334;12.396;2024-03-02T05:06:25;20.55;;;8.93;;
54849;SDS011;47660;51.334;12.396;2024-03-02T05:08:50;21.70;;;8.93;;
54849;SDS011;47660;51.334;12.396;2024-03-02T05:11:15;18.95;;;8.25;;
54849;SDS011;47660;51.334;12.396;2024-03-02T05:13:59;23.15;;;8.43;;
54849;SDS011;47660;51.334;12.396;2024-03-02T05:16:24;22.38;;;8.77;;
54849;SDS011;47660;51.334;12.396;2024-03-02T05:18:49;19.90;;;8.77;;
54849;SDS011;47660;51.334;12.396;2024-03-02T05:21:15;19.88;;;8.32;;
54849;SDS011;47660;51.334;12.396;2024-03-02T05:23:40;23.27;;;9.18;;
54849;SDS011;47660;51.334;12.396;2024-03-02T05:26:05;16.98;;;8.57;;
54849;SDS011;47660;51.334;12.396;2024-03-02T05:28:31;20.27;;;9.40;;
54849;SDS011;47660;51.334;12.396;2024-03-02T05:30:56;23.80;;;9.15;;
54849;SDS011;47660;51.334;12.396;2024-03-02T05:33:21;18.77;;;8.98;;
54849;SDS011;47660;51.334;12.396;2024-03-02T05:35:47;24.85;;;9.32;;
54849;SDS011;47660;51.334;12.396;2024-03-02T05:38:14;20.75;;;8.13;;
54849;SDS011;47660;51.334;12.396;2024-03-02T05:40:40;22.55;;;9.23;;
54849;SDS011;47660;51.334;12.396;2024-03-02T05:43:05;25.30;;;9.43;;
54849;SDS011;47660;51.334;12.396;2024-03-02T05:45:30;18.83;;;8.32;;
54849;SDS011;47660;51.334;12.396;2024-03-02T05:47:56;26.77;;;9.23;;
54849;SDS011;47660;51.334;12.396;2024-03-02T05:50:21;20.75;;;8.82;;
54849;SDS011;47660;51.334;12.396;2024-03-02T05:52:46;20.70;;;8.80;;
54849;SDS011;47660;51.334;12.396;2024-03-02T05:55:12;21.50;;;8.40;;
54849;SDS011;47660;51.334;12.396;2024-03-02T05:57:37;21.98;;;8.20;;
54849;SDS011;47660;51.334;12.396;2024-03-02T06:00:08;21.80;;;9.45;;
54849;SDS011;47660;51.334;12.396;2024-03-02T06:02:34;22.17;;;9.07;;
54849;SDS011;47660;51.334;12.396;2024-03-02T06:05:00;20.08;;;8.07;;
54849;SDS011;47660;51.334;12.396;2024-03-02T06:07:25;25.27;;;10.90;;
54849;SDS011;47660;51.334;12.396;2024-03-02T06:09:50;22.73;;;8.35;;
54849;SDS011;47660;51.334;12.396;2024-03-02T06:12:17;24.48;;;9.23;;
54849;SDS011;47660;51.334;12.396;2024-03-02T06:14:43;22.88;;;9.63;;
54849;SDS011;47660;51.334;12.396;2024-03-02T06:17:08;21.00;;;9.15;;
54849;SDS011;47660;51.334;12.396;2024-03-02T06:19:33;26.33;;;8.95;;
54849;SDS011;47660;51.334;12.396;2024-03-02T06:21:58;21.40;;;9.52;;
54849;SDS011;47660;51.334;12.396;2024-03-02T06:24:24;24.13;;;9.60;;
54849;SDS011;47660;51.334;12.396;2024-03-02T06:26:51;21.52;;;9.80;;
54849;SDS011;47660;51.334;12.396;2024-03-02T06:29:16;23.92;;;9.95;;
54849;SDS011;47660;51.334;12.396;2024-03-02T06:31:42;24.10;;;9.52;;
54849;SDS011;47660;51.334;12.396;2024-03-02T06:34:07;22.05;;;9.15;;
54849;SDS011;47660;51.334;12.396;2024-03-02T06:36:33;25.60;;;9.73;;
54849;SDS011;47660;51.334;12.396;2024-03-02T06:38:58;24.33;;;10.60;;
54849;SDS011;47660;51.334;12.396;2024-03-02T06:41:24;22.95;;;9.80;;
54849;SDS011;47660;51.334;12.396;2024-03-02T06:43:49;22.45;;;9.38;;
54849;SDS011;47660;51.334;12.396;2024-03-02T06:46:14;26.20;;;10.27;;
54849;SDS011;47660;51.334;12.396;2024-03-02T06:48:40;29.70;;;11.13;;
54849;SDS011;47660;51.334;12.396;2024-03-02T06:51:05;25.92;;;10.57;;
54849;SDS011;47660;51.334;12.396;2024-03-02T06:53:30;22.15;;;9.88;;
54849;SDS011;47660;51.334;12.396;2024-03-02T06:55:58;25.42;;;9.85;;
54849;SDS011;47660;51.334;12.396;2024-03-02T06:58:23;31.52;;;11.32;;
54849;SDS011;47660;51.334;12.396;2024-03-02T07:00:48;24.65;;;10.38;;
54849;SDS011;47660;51.334;12.396;2024-03-02T07:03:14;28.15;;;10.93;;
54849;SDS011;47660;51.334;12.396;2024-03-02T07:05:39;26.10;;;9.70;;
54849;SDS011;47660;51.334;12.396;2024-03-02T07:08:04;26.77;;;10.73;;
54849;SDS011;47660;51.334;12.396;2024-03-02T07:10:31;24.75;;;9.55;;
54849;SDS011;47660;51.334;12.396;2024-03-02T07:12:56;22.98;;;9.70;;
54849;SDS011;47660;51.334;12.396;2024-03-02T07:15:21;25.15;;;10.18;;
54849;SDS011;47660;51.334;12.396;2024-03-02T07:17:52;22.88;;;9.32;;
54849;SDS011;47660;51.334;12.396;2024-03-02T07:20:18;22.08;;;9.35;;
54849;SDS011;47660;51.334;12.396;2024-03-02T07:22:43;27.17;;;10.57;;
54849;SDS011;47660;51.334;12.396;2024-03-02T07:25:08;22.90;;;10.18;;
54849;SDS011;47660;51.334;12.396;2024-03-02T07:27:33;23.08;;;10.27;;
54849;SDS011;47660;51.334;12.396;2024-03-02T07:30:00;22.70;;;9.23;;
54849;SDS011;47660;51.334;12.396;2024-03-02T07:32:26;24.65;;;10.18;;
54849;SDS011;47660;51.334;12.396;2024-03-02T07:34:52;24.55;;;9.95;;
54849;SDS011;47660;51.334;12.396;2024-03-02T07:37:17;21.42;;;9.10;;
54849;SDS011;47660;51.334;12.396;2024-03-02T07:39:43;26.05;;;9.93;;
54849;SDS011;47660;51.334;12.396;2024-03-02T07:42:10;24.60;;;8.63;;
54849;SDS011;47660;51.334;12.396;2024-03-02T07:44:35;21.48;;;9.23;;
54849;SDS011;47660;51.334;12.396;2024-03-02T07:47:00;21.10;;;8.63;;
54849;SDS011;47660;51.334;12.396;2024-03-02T07:49:26;19.02;;;8.52;;
54849;SDS011;47660;51.334;12.396;2024-03-02T07:51:51;24.13;;;9.95;;
54849;SDS011;47660;51.334;12.396;2024-03-02T07:54:16;25.85;;;9.30;;
54849;SDS011;47660;51.334;12.396;2024-03-02T07:56:42;24.20;;;10.18;;
54849;SDS011;47660;51.334;12.396;2024-03-02T07:59:07;21.98;;;9.88;;
54849;SDS011;47660;51.334;12.396;2024-03-02T08:01:33;24.30;;;9.68;;
54849;SDS011;47660;51.334;12.396;2024-03-02T08:03:59;26.00;;;10.40;;
54849;SDS011;47660;51.334;12.396;2024-03-02T08:06:26;19.33;;;8.93;;
54849;SDS011;47660;51.334;12.396;2024-03-02T08:08:55;20.75;;;9.13;;
54849;SDS011;47660;51.334;12.396;2024-03-02T08:11:21;20.63;;;9.63;;
54849;SDS011;47660;51.334;12.396;2024-03-02T08:13:46;20.63;;;9.48;;
54849;SDS011;47660;51.334;12.396;2024-03-02T08:16:11;21.23;;;9.48;;
54849;SDS011;47660;51.334;12.396;2024-03-02T08:18:36;21.45;;;9.10;;
54849;SDS011;47660;51.334;12.396;2024-03-02T08:21:02;21.90;;;9.45;;
54849;SDS011;47660;51.334;12.396;2024-03-02T08:23:27;22.88;;;9.70;;
54849;SDS011;47660;51.334;12.396;2024-03-02T08:25:52;18.52;;;9.57;;
54849;SDS011;47660;51.334;12.396;2024-03-02T08:28:18;24.35;;;9.38;;
54849;SDS011;47660;51.334;12.396;2024-03-02T08:30:43;19.67;;;8.88;;
54849;SDS011;47660;51.334;12.396;2024-03-02T08:33:08;22.83;;;9.32;;
54849;SDS011;47660;51.334;12.396;2024-03-02T08:35:33;20.80;;;9.25;;
54849;SDS011;47660;51.334;12.396;2024-03-02T08:38:01;24.25;;;9.70;;
54849;SDS011;47660;51.334;12.396;2024-03-02T08:40:28;24.80;;;9.80;;
54849;SDS011;47660;51.334;12.396;2024-03-02T08:42:53;24.95;;;9.95;;
54849;SDS011;47660;51.334;12.396;2024-03-02T08:45:18;21.60;;;9.00;;
54849;SDS011;47660;51.334;12.396;2024-03-02T08:47:45;23.13;;;8.98;;
54849;SDS011;47660;51.334;12.396;2024-03-02T08:50:10;22.65;;;8.90;;
54849;SDS011;47660;51.334;12.396;2024-03-02T08:52:36;22.27;;;9.82;;
54849;SDS011;47660;51.334;12.396;2024-03-02T08:55:01;18.95;;;9.35;;
54849;SDS011;47660;51.334;12.396;2024-03-02T08:57:27;23.25;;;9.65;;
54849;SDS011;47660;51.334;12.396;2024-03-02T08:59:52;24.08;;;10.07;;
54849;SDS011;47660;51.334;12.396;2024-03-02T09:02:18;24.15;;;10.35;;
54849;SDS011;47660;51.334;12.396;2024-03-02T09:04:43;23.02;;;8.88;;
54849;SDS011;47660;51.334;12.396;2024-03-02T09:07:08;22.10;;;10.20;;
54849;SDS011;47660;51.334;12.396;2024-03-02T09:09:33;24.33;;;10.95;;
54849;SDS011;47660;51.334;12.396;2024-03-02T09:11:59;24.55;;;9.98;;
54849;SDS011;47660;51.334;12.396;2024-03-02T09:14:25;22.80;;;9.65;;
54849;SDS011;47660;51.334;12.396;2024-03-02T09:16:50;22.40;;;9.80;;
54849;SDS011;47660;51.334;12.396;2024-03-02T09:19:15;20.55;;;8.90;;
54849;SDS011;47660;51.334;12.396;2024-03-02T09:21:41;22.85;;;9.05;;
54849;SDS011;47660;51.334;12.396;2024-03-02T09:24:07;21.80;;;9.80;;
54849;SDS011;47660;51.334;12.396;2024-03-02T09:26:32;21.52;;;9.68;;
54849;SDS011;47660;51.334;12.396;2024-03-02T09:28:58;21.45;;;9.85;;
54849;SDS011;47660;51.334;12.396;2024-03-02T09:31:23;22.77;;;9.55;;
54849;SDS011;47660;51.334;12.396;2024-03-02T09:33:48;19.20;;;9.15;;
54849;SDS011;47660;51.334;12.396;2024-03-02T09:36:17;21.27;;;8.93;;
54849;SDS011;47660;51.334;12.396;2024-03-02T09:38:44;20.08;;;9.40;;
54849;SDS011;47660;51.334;12.396;2024-03-02T09:41:09;21.60;;;9.32;;
54849;SDS011;47660;51.334;12.396;2024-03-02T09:43:35;21.48;;;9.13;;
54849;SDS011;47660;51.334;12.396;2024-03-02T09:46:00;20.25;;;8.85;;
54849;SDS011;47660;51.334;12.396;2024-03-02T09:48:26;20.42;;;8.23;;
54849;SDS011;47660;51.334;12.396;2024-03-02T09:50:51;18.13;;;8.60;;
54849;SDS011;47660;51.334;12.396;2024-03-02T09:53:17;20.15;;;8.70;;
54849;SDS011;47660;51.334;12.396;2024-03-02T09:55:46;21.33;;;9.23;;
54849;SDS011;47660;51.334;12.396;2024-03-02T09:58:12;19.98;;;8.65;;
54849;SDS011;47660;51.334;12.396;2024-03-02T10:00:37;21.25;;;8.85;;
54849;SDS011;47660;51.334;12.396;2024-03-02T10:03:02;20.05;;;7.47;;
54849;SDS011;47660;51.334;12.396;2024-03-02T10:05:29;21.83;;;9.00;;
54849;SDS011;47660;51.334;12.396;2024-03-02T10:07:59;19.13;;;8.18;;
54849;SDS011;47660;51.334;12.396;2024-03-02T10:10:38;17.23;;;8.05;;
54849;SDS011;47660;51.334;12.396;2024-03-02T10:13:08;20.15;;;8.07;;
54849;SDS011;47660;51.334;12.396;2024-03-02T10:15:35;16.80;;;7.90;;
54849;SDS011;47660;51.334;12.396;2024-03-02T10:18:11;16.92;;;7.97;;
54849;SDS011;47660;51.334;12.396;2024-03-02T10:20:38;23.52;;;7.97;;
54849;SDS011;47660;51.334;12.396;2024-03-02T10:25:39;16.17;;;7.60;;
54849;SDS011;47660;51.334;12.396;2024-03-02T10:28:06;14.13;;;7.43;;
54849;SDS011;47660;51.334;12.396;2024-03-02T10:30:31;18.40;;;6.88;;
54849;SDS011;47660;51.334;12.396;2024-03-02T10:32:57;16.88;;;7.07;;
54849;SDS011;47660;51.334;12.396;2024-03-02T10:35:23;14.80;;;6.65;;
54849;SDS011;47660;51.334;12.396;2024-03-02T10:37:49;12.82;;;6.57;;
54849;SDS011;47660;51.334;12.396;2024-03-02T10:40:14;13.02;;;6.38;;
54849;SDS011;47660;51.334;12.396;2024-03-02T10:42:41;13.80;;;6.47;;
54849;SDS011;47660;51.334;12.396;2024-03-02T10:45:08;11.95;;;6.55;;
54849;SDS011;47660;51.334;12.396;2024-03-02T10:47:36;13.75;;;7.53;;
54849;SDS011;47660;51.334;12.396;2024-03-02T10:50:05;12.02;;;6.65;;
54849;SDS011;47660;51.334;12.396;2024-03-02T10:52:33;10.07;;;6.70;;
54849;SDS011;47660;51.334;12.396;2024-03-02T10:55:05;10.00;;;6.10;;
54849;SDS011;47660;51.334;12.396;2024-03-02T10:57:51;8.48;;;5.53;;
54849;SDS011;47660;51.334;12.396;2024-03-02T11:00:18;9.40;;;6.18;;
54849;SDS011;47660;51.334;12.396;2024-03-02T11:02:50;10.40;;;5.72;;
54849;SDS011;47660;51.334;12.396;2024-03-02T11:05:21;8.60;;;5.68;;
54849;SDS011;47660;51.334;12.396;2024-03-02T11:08:03;8.45;;;5.45;;
54849;SDS011;47660;51.334;12.396;2024-03-02T11:10:34;7.18;;;4.82;;
54849;SDS011;47660;51.334;12.396;2024-03-02T11:13:02;9.88;;;5.70;;
54849;SDS011;47660;51.334;12.396;2024-03-02T11:15:31;7.78;;;4.78;;
54849;SDS011;47660;51.334;12.396;2024-03-02T11:17:57;8.50;;;5.22;;
54849;SDS011;47660;51.334;12.396;2024-03-02T11:20:23;9.27;;;5.18;;
54849;SDS011;47660;51.334;12.396;2024-03-02T11:22:49;7.47;;;4.93;;
54849;SDS011;47660;51.334;12.396;2024-03-02T11:25:25;7.35;;;5.30;;
54849;SDS011;47660;51.334;12.396;2024-03-02T11:32:56;7.72;;;5.15;;
54849;SDS011;47660;51.334;12.396;2024-03-02T11:35:23;9.85;;;5.80;;
54849;SDS011;47660;51.334;12.396;2024-03-02T11:37:50;7.88;;;5.70;;
54849;SDS011;47660;51.334;12.396;2024-03-02T11:40:21;8.77;;;5.40;;
54849;SDS011;47660;51.334;12.396;2024-03-02T11:42:47;7.40;;;5.30;;
54849;SDS011;47660;51.334;12.396;2024-03-02T11:45:12;7.47;;;5.00;;
54849;SDS011;47660;51.334;12.396;2024-03-02T11:47:42;6.93;;;5.22;;
54849;SDS011;47660;51.334;12.396;2024-03-02T11:50:11;7.70;;;5.20;;
54849;SDS011;47660;51.334;12.396;2024-03-02T11:52:36;8.32;;;5.63;;
54849;SDS011;47660;51.334;12.396;2024-03-02T11:55:04;7.00;;;5.03;;
54849;SDS011;47660;51.334;12.396;2024-03-02T11:57:32;7.90;;;5.25;;
54849;SDS011;47660;51.334;12.396;2024-03-02T11:59:58;8.82;;;4.68;;
54849;SDS011;47660;51.334;12.396;2024-03-02T12:02:24;6.53;;;4.80;;
54849;SDS011;47660;51.334;12.396;2024-03-02T12:04:49;6.77;;;4.30;;
54849;SDS011;47660;51.334;12.396;2024-03-02T12:07:18;6.53;;;4.85;;
54849;SDS011;47660;51.334;12.396;2024-03-02T12:09:46;7.22;;;4.68;;
54849;SDS011;47660;51.334;12.396;2024-03-02T12:12:12;7.40;;;4.10;;
54849;SDS011;47660;51.334;12.396;2024-03-02T12:14:39;7.22;;;4.88;;
54849;SDS011;47660;51.334;12.396;2024-03-02T12:17:05;7.37;;;4.97;;
54849;SDS011;47660;51.334;12.396;2024-03-02T12:19:31;8.10;;;5.07;;
54849;SDS011;47660;51.334;12.396;2024-03-02T12:21:57;8.20;;;4.63;;
54849;SDS011;47660;51.334;12.396;2024-03-02T12:24:23;6.57;;;4.47;;
54849;SDS011;47660;51.334;12.396;2024-03-02T12:26:50;8.10;;;4.45;;
54849;SDS011;47660;51.334;12.396;2024-03-02T12:29:15;7.45;;;4.97;;
54849;SDS011;47660;51.334;12.396;2024-03-02T12:31:44;10.23;;;4.60;;
54849;SDS011;47660;51.334;12.396;2024-03-02T12:34:13;6.53;;;4.63;;
54849;SDS011;47660;51.334;12.396;2024-03-02T12:36:39;7.63;;;5.00;;
54849;SDS011;47660;51.334;12.396;2024-03-02T12:39:06;7.53;;;4.85;;
54849;SDS011;47660;51.334;12.396;2024-03-02T12:41:33;8.77;;;5.18;;
54849;SDS011;47660;51.334;12.396;2024-03-02T12:44:01;7.70;;;4.63;;
54849;SDS011;47660;51.334;12.396;2024-03-02T12:46:26;6.55;;;4.70;;
54849;SDS011;47660;51.334;12.396;2024-03-02T12:48:52;6.65;;;4.07;;
54849;SDS011;47660;51.334;12.396;2024-03-02T12:51:18;5.63;;;4.45;;
54849;SDS011;47660;51.334;12.396;2024-03-02T12:53:43;7.00;;;4.13;;
54849;SDS011;47660;51.334;12.396;2024-03-02T12:56:09;6.07;;;3.67;;
54849;SDS011;47660;51.334;12.396;2024-03-02T12:58:40;6.15;;;3.85;;
54849;SDS011;47660;51.334;12.396;2024-03-02T13:01:07;6.18;;;3.83;;
54849;SDS011;47660;51.334;12.396;2024-03-02T13:03:42;5.65;;;4.00;;
54849;SDS011;47660;51.334;12.396;2024-03-02T13:06:08;8.63;;;3.63;;
54849;SDS011;47660;51.334;12.396;2024-03-02T13:08:33;6.95;;;3.85;;
54849;SDS011;47660;51.334;12.396;2024-03-02T13:11:00;5.53;;;3.60;;
54849;SDS011;47660;51.334;12.396;2024-03-02T13:13:25;5.18;;;3.53;;
54849;SDS011;47660;51.334;12.396;2024-03-02T13:15:54;5.70;;;3.80;;
54849;SDS011;47660;51.334;12.396;2024-03-02T13:18:21;7.07;;;4.25;;
54849;SDS011;47660;51.334;12.396;2024-03-02T13:20:46;7.05;;;4.05;;
54849;SDS011;47660;51.334;12.396;2024-03-02T13:23:12;6.05;;;4.03;;
54849;SDS011;47660;51.334;12.396;2024-03-02T13:25:37;6.13;;;3.53;;
54849;SDS011;47660;51.334;12.396;2024-03-02T13:28:03;5.82;;;3.58;;
54849;SDS011;47660;51.334;12.396;2024-03-02T13:30:28;7.18;;;4.32;;
54849;SDS011;47660;51.334;12.396;2024-03-02T13:32:54;8.45;;;4.38;;
54849;SDS011;47660;51.334;12.396;2024-03-02T13:35:19;6.97;;;4.43;;
54849;SDS011;47660;51.334;12.396;2024-03-02T13:37:48;8.35;;;4.82;;
54849;SDS011;47660;51.334;12.396;2024-03-02T13:40:15;8.20;;;4.30;;
54849;SDS011;47660;51.334;12.396;2024-03-02T13:42:44;8.30;;;4.22;;
54849;SDS011;47660;51.334;12.396;2024-03-02T13:45:11;7.57;;;4.22;;
54849;SDS011;47660;51.334;12.396;2024-03-02T13:47:36;7.68;;;4.60;;
54849;SDS011;47660;51.334;12.396;2024-03-02T13:50:02;7.53;;;4.43;;
54849;SDS011;47660;51.334;12.396;2024-03-02T13:52:27;7.82;;;4.30;;
54849;SDS011;47660;51.334;12.396;2024-03-02T13:54:52;7.37;;;4.20;;
54849;SDS011;47660;51.334;12.396;2024-03-02T13:57:18;7.53;;;4.22;;
54849;SDS011;47660;51.334;12.396;2024-03-02T13:59:45;6.47;;;3.97;;
54849;SDS011;47660;51.334;12.396;2024-03-02T14:02:11;8.82;;;4.50;;
54849;SDS011;47660;51.334;12.396;2024-03-02T14:04:37;7.63;;;3.88;;
54849;SDS011;47660;51.334;12.396;2024-03-02T14:07:04;10.00;;;4.30;;
54849;SDS011;47660;51.334;12.396;2024-03-02T14:09:32;6.80;;;4.07;;
54849;SDS011;47660;51.334;12.396;2024-03-02T14:11:58;8.18;;;4.15;;
54849;SDS011;47660;51.334;12.396;2024-03-02T14:14:25;6.93;;;4.40;;
54849;SDS011;47660;51.334;12.396;2024-03-02T14:16:52;7.03;;;3.83;;
54849;SDS011;47660;51.334;12.396;2024-03-02T14:19:17;7.43;;;3.80;;
54849;SDS011;47660;51.334;12.396;2024-03-02T14:21:43;8.52;;;3.80;;
54849;SDS011;47660;51.334;12.396;2024-03-02T14:24:08;6.88;;;3.60;;
54849;SDS011;47660;51.334;12.396;2024-03-02T14:26:34;6.07;;;3.28;;